Time;durP1;ratioP1;P1;durP2;ratioP2;P2;SDS_P1;SDS_P2;PMS_P1;PMS_P2;Temp;Humidity;BMP_temperature;BMP_pressure;BME280_temperature;BME280_humidity;BME280_pressure;Samples;Min_cycle;Max_cycle;Signal;HPM_P1;HPM_P2
2023/02/15 00:01:09;;;;;;;;;92.80;70.80;;;;;5.85;66.43;102597.25;1984062;28;3667901;-75
2023/02/15 00:02:19;;;;;;;;;84.00;71.00;;;;;5.84;66.34;102598.97;1967637;28;2907567;-75
2023/02/15 00:03:32;;;;;;;;;81.00;63.25;;;;;5.83;66.24;102599.81;1974719;28;3646027;-76
2023/02/15 00:04:46;;;;;;;;;90.00;73.33;;;;;5.81;66.46;102598.91;1985541;28;2908596;-75
2023/02/15 00:05:59;;;;;;;;;85.75;73.50;;;;;5.80;66.43;102594.53;1991254;28;3657505;-75
2023/02/15 00:07:09;;;;;;;;;86.50;75.50;;;;;5.79;66.40;102595.41;1994782;28;2891891;-75
2023/02/15 00:08:24;;;;;;;;;86.11;73.89;;;;;5.78;66.24;102593.66;1980736;28;3673109;-76
2023/02/15 00:09:37;;;;;;;;;87.00;69.00;;;;;5.78;66.54;102598.00;1987275;28;4427280;-76
2023/02/15 00:10:49;;;;;;;;;85.60;74.60;;;;;5.77;65.96;102593.63;2002006;28;3656428;-76
2023/02/15 00:12:01;;;;;;;;;88.50;73.33;;;;;5.77;66.54;102594.50;1979458;28;3678336;-76
2023/02/15 00:13:13;;;;;;;;;86.33;73.67;;;;;5.75;66.58;102596.22;1992721;28;2901376;-75
2023/02/15 00:14:25;;;;;;;;;87.00;76.50;;;;;5.74;66.87;102597.94;1990013;28;3663161;-75
2023/02/15 00:15:36;;;;;;;;;88.00;73.50;;;;;5.72;66.45;102591.81;1982768;28;2896096;-75
2023/02/15 00:16:52;;;;;;;;;87.13;71.38;;;;;5.74;66.85;102594.44;1975980;28;3676656;-75
2023/02/15 00:18:02;;;;;;;;;89.00;76.50;;;;;5.72;66.32;102588.34;1968335;28;2909720;-75
2023/02/15 00:19:16;;;;;;;;;85.40;67.60;;;;;5.73;66.19;102592.69;1982881;28;3669989;-75
2023/02/15 00:20:27;;;;;;;;;85.00;68.50;;;;;5.71;66.26;102587.44;1969971;28;2916871;-75
2023/02/15 00:21:40;;;;;;;;;85.40;67.60;;;;;5.71;66.52;102589.16;1987659;28;3671020;-75
2023/02/15 00:22:50;;;;;;;;;84.00;65.00;;;;;5.70;66.39;102587.44;1963938;28;2577347;-75
2023/02/15 00:24:04;;;;;;;;;87.60;73.00;;;;;5.69;66.63;102580.44;1984981;28;3669992;-75
2023/02/15 00:25:17;;;;;;;;;97.25;74.25;;;;;5.69;66.54;102585.66;1968489;28;4449120;-76
2023/02/15 00:26:31;;;;;;;;;82.00;64.38;;;;;5.68;66.28;102579.56;2007548;28;3674282;-75
2023/02/15 00:27:42;;;;;;;;;85.50;70.00;;;;;5.67;66.63;102582.16;1997248;28;2916373;-75
2023/02/15 00:29:00;;;;;;;;;85.38;73.38;;;;;5.66;66.35;102577.78;1975973;28;3680855;-76
2023/02/15 00:30:11;;;;;;;;;88.00;73.50;;;;;5.65;66.46;102573.41;1958861;28;2573177;-76
2023/02/15 00:31:22;;;;;;;;;87.00;71.00;;;;;5.65;66.40;102574.31;1959404;28;2918974;-75
2023/02/15 00:32:34;;;;;;;;;86.17;70.33;;;;;5.63;66.54;102571.66;1972044;28;3676270;-75
2023/02/15 00:33:46;;;;;;;;;86.67;69.00;;;;;5.63;66.38;102570.75;1985008;28;3675192;-75
2023/02/15 00:34:58;;;;;;;;;85.20;70.00;;;;;5.62;66.48;102569.91;1990129;28;3665814;-75
2023/02/15 00:36:13;;;;;;;;;81.88;70.88;;;;;5.61;66.75;102573.38;1977595;28;3642949;-75
2023/02/15 00:37:23;;;;;;;;;86.00;68.00;;;;;5.60;66.76;102571.63;1964070;28;2569054;-76
2023/02/15 00:38:36;;;;;;;;;86.80;72.20;;;;;5.61;66.40;102575.09;1985494;28;3666863;-76
2023/02/15 00:39:47;;;;;;;;;83.00;71.00;;;;;5.59;66.60;102569.84;1962683;28;2896044;-75
2023/02/15 00:41:03;;;;;;;;;87.38;68.50;;;;;5.58;66.16;102570.69;1968614;28;3680761;-75
2023/02/15 00:42:16;;;;;;;;;85.00;73.00;;;;;5.58;66.48;102578.50;1952412;28;3655804;-75
2023/02/15 00:43:27;;;;;;;;;86.00;69.00;;;;;5.58;66.56;102570.69;1981160;28;2566924;-76
2023/02/15 00:44:38;;;;;;;;;81.50;69.00;;;;;5.57;66.39;102565.47;1964154;28;2892983;-76
2023/02/15 00:45:52;;;;;;;;;85.38;72.25;;;;;5.56;66.49;102577.63;1984098;28;3659947;-75
2023/02/15 00:47:03;;;;;;;;;88.00;74.00;;;;;5.57;66.66;102568.06;1977888;28;2570059;-75
2023/02/15 00:48:18;;;;;;;;;89.50;73.88;;;;;5.56;66.40;102569.78;1982945;28;3672096;-76
2023/02/15 00:49:30;;;;;;;;;84.25;69.25;;;;;5.56;66.62;102568.91;1967623;28;3655639;-75
2023/02/15 00:50:41;;;;;;;;;87.00;68.00;;;;;5.54;66.64;102566.28;1989079;28;2919028;-76
2023/02/15 00:51:52;;;;;;;;;89.00;70.00;;;;;5.54;66.41;102560.19;1967982;28;2570008;-75
2023/02/15 00:53:04;;;;;;;;;84.00;68.80;;;;;5.53;67.03;102561.94;1979432;28;3662717;-75
2023/02/15 00:54:17;;;;;;;;;88.00;74.50;;;;;5.51;66.68;102558.38;1967080;28;4423170;-75
2023/02/15 00:55:30;;;;;;;;;87.75;73.50;;;;;5.51;66.58;102566.22;1990693;28;3653358;-75
2023/02/15 00:56:40;;;;;;;;;85.00;71.00;;;;;5.51;66.39;102566.22;1974075;28;2565917;-76
2023/02/15 00:57:52;;;;;;;;;87.20;69.20;;;;;5.50;66.56;102556.66;1981269;28;3682496;-76
2023/02/15 00:59:04;;;;;;;;;82.60;66.00;;;;;5.49;66.48;102562.72;1987390;28;3666895;-76
2023/02/15 01:00:17;;;;;;;;;88.67;71.17;;;;;5.50;66.31;102565.38;1976180;28;3675245;-76
2023/02/15 01:01:29;;;;;;;;;87.00;75.33;;;;;5.49;66.46;102562.72;1985094;28;2904363;-75
2023/02/15 01:02:40;;;;;;;;;86.33;68.67;;;;;5.49;66.57;102567.91;1983724;28;2914910;-76
2023/02/15 01:03:51;;;;;;;;;83.33;69.67;;;;;5.47;66.31;102565.31;1982759;28;2905461;-75
2023/02/15 01:05:03;;;;;;;;;88.67;70.00;;;;;5.46;66.59;102567.84;1977065;28;3676597;-75
2023/02/15 01:06:16;;;;;;;;;89.00;71.00;;;;;5.46;66.54;102570.47;1990948;28;2562829;-76
2023/02/15 01:07:26;;;;;;;;;86.50;72.50;;;;;5.46;66.51;102568.75;1958285;28;2909622;-75
2023/02/15 01:08:39;;;;;;;;;86.00;69.80;;;;;5.45;66.54;102560.91;1985528;28;3669979;-75
2023/02/15 01:09:50;;;;;;;;;86.67;71.67;;;;;5.44;66.32;102562.63;1965818;28;3680413;-75
2023/02/15 01:11:08;;;;;;;;;88.20;74.20;;;;;5.43;66.50;102565.22;1995004;28;3657499;-75
2023/02/15 01:12:20;;;;;;;;;88.33;72.67;;;;;5.42;66.18;102564.34;1953236;28;2921107;-75
2023/02/15 01:13:33;;;;;;;;;87.25;71.00;;;;;5.42;66.40;102560.84;1983458;28;3671173;-75
2023/02/15 01:14:45;;;;;;;;;87.50;72.75;;;;;5.41;66.54;102567.78;1974420;28;3659624;-75
2023/02/15 01:15:56;;;;;;;;;85.00;68.00;;;;;5.40;66.67;102561.72;1975787;28;2919028;-75
2023/02/15 01:17:07;;;;;;;;;91.00;70.50;;;;;5.39;66.38;102559.94;1971888;28;2559604;-76
2023/02/15 01:18:22;;;;;;;;;86.00;65.00;;;;;5.38;66.48;102554.69;1980511;28;3670024;-75
2023/02/15 01:19:33;;;;;;;;;87.50;73.00;;;;;5.37;66.39;102556.44;1949819;28;2569031;-75
2023/02/15 01:20:47;;;;;;;;;88.75;74.13;;;;;5.35;66.56;102555.53;1968254;28;3666912;-76
2023/02/15 01:21:57;;;;;;;;;83.00;64.00;;;;;5.35;66.83;102557.25;1958166;28;2910703;-75
2023/02/15 01:23:10;;;;;;;;;84.60;70.00;;;;;5.34;66.73;102553.75;1976980;28;3659557;-75
2023/02/15 01:24:23;;;;;;;;;87.00;67.63;;;;;5.34;66.32;102555.47;1968898;28;3668935;-75
2023/02/15 01:25:37;;;;;;;;;84.75;68.63;;;;;5.33;66.69;102548.53;1969101;28;3676253;-75
2023/02/15 01:26:50;;;;;;;;;86.00;71.75;;;;;5.33;66.39;102548.53;1979357;28;3664954;-75
2023/02/15 01:28:03;;;;;;;;;85.25;68.75;;;;;5.32;66.57;102546.75;1989576;28;4423118;-76
2023/02/15 01:29:15;;;;;;;;;92.00;79.33;;;;;5.31;66.36;102543.25;1992696;28;3669057;-75
2023/02/15 01:30:28;;;;;;;;;77.25;57.00;;;;;5.30;67.08;102544.13;1982782;28;3648507;-76
2023/02/15 01:31:38;;;;;;;;;86.00;73.00;;;;;5.31;66.68;102552.84;1977621;28;2909638;-76
2023/02/15 01:32:50;;;;;;;;;88.60;68.60;;;;;5.31;66.46;102550.22;1961959;28;3677615;-75
2023/02/15 01:34:03;;;;;;;;;88.75;69.25;;;;;5.29;66.54;102550.19;1968390;28;4424169;-75
2023/02/15 01:35:17;;;;;;;;;82.50;61.75;;;;;5.29;66.65;102545.84;2008586;28;3646055;-75
2023/02/15 01:36:30;;;;;;;;;86.80;75.80;;;;;5.28;66.37;102544.06;1986391;28;3649168;-75
2023/02/15 01:37:40;;;;;;;;;88.50;72.50;;;;;5.28;66.46;102545.84;1963701;28;2568041;-75
2023/02/15 01:38:52;;;;;;;;;86.40;70.00;;;;;5.27;66.62;102546.66;1972508;28;3651248;-75
2023/02/15 01:40:08;;;;;;;;;85.80;74.20;;;;;5.25;66.46;102551.88;1979749;28;3662713;-75
2023/02/15 01:41:20;;;;;;;;;86.50;69.50;;;;;5.25;66.66;102548.38;1960702;28;2904433;-75
2023/02/15 01:42:33;;;;;;;;;84.50;70.25;;;;;5.23;66.50;102547.47;1975329;28;3651247;-76
2023/02/15 01:43:48;;;;;;;;;86.33;68.00;;;;;5.24;66.31;102554.44;1985337;28;3677796;-76
2023/02/15 01:45:04;;;;;;;;;80.00;63.75;;;;;5.22;66.66;102548.31;1980911;28;3643944;-75
2023/02/15 01:46:17;;;;;;;;;85.50;67.00;;;;;5.22;66.62;102551.81;1982746;28;2921172;-75
2023/02/15 01:47:32;;;;;;;;;84.00;68.50;;;;;5.20;66.92;102550.91;1967036;28;2573205;-75
2023/02/15 01:48:53;;;;;;;;;84.50;69.00;;;;;5.20;66.55;102550.00;1968144;28;2568454;-75
2023/02/15 01:50:18;;;;;;;;;88.00;68.00;;;;;5.18;66.18;102548.25;1960400;28;2566948;-75
2023/02/15 01:51:33;;;;;;;;;86.50;65.00;;;;;5.17;66.75;102548.22;1959763;28;2570568;-75
2023/02/15 01:52:51;;;;;;;;;87.50;74.00;;;;;5.15;66.73;102545.59;1953245;28;2908979;-75
2023/02/15 01:54:10;;;;;;;;;86.00;70.50;;;;;5.15;66.18;102548.22;1959344;28;2573212;-75
2023/02/15 01:55:24;;;;;;;;;88.00;72.00;;;;;5.15;66.68;102542.09;1962181;28;2926342;-75
2023/02/15 01:56:39;;;;;;;;;85.25;70.25;;;;;5.13;66.87;102539.47;1988093;28;3656471;-75
2023/02/15 01:57:50;;;;;;;;;91.00;72.50;;;;;5.13;66.47;102547.31;1984135;28;2916918;-75
2023/02/15 01:59:08;;;;;;;;;83.00;68.00;;;;;5.12;66.61;102549.84;1968939;28;2905498;-75
2023/02/15 02:00:21;;;;;;;;;83.75;69.25;;;;;5.11;66.37;102546.38;1968972;28;3656544;-75
2023/02/15 02:01:32;;;;;;;;;88.00;67.00;;;;;5.11;66.74;102541.16;1981731;28;2562816;-75
2023/02/15 02:02:47;;;;;;;;;89.00;69.00;;;;;5.11;66.62;102542.91;1972497;28;2567455;-75
2023/02/15 02:04:29;;;;;;;;;85.50;68.50;;;;;5.09;66.56;102532.44;1963235;28;2562760;-75
2023/02/15 02:05:41;;;;;;;;;84.00;66.00;;;;;5.07;66.54;102534.13;1969634;28;2910687;-75
2023/02/15 02:06:53;;;;;;;;;77.67;60.00;;;;;5.06;66.71;102527.19;1957856;28;3637754;-75
2023/02/15 02:08:04;;;;;;;;;87.50;70.00;;;;;5.06;66.50;102532.41;1953734;28;2919372;-75
2023/02/15 02:09:16;;;;;;;;;87.00;69.20;;;;;5.05;66.67;102530.63;1963721;28;3675196;-75
2023/02/15 02:10:30;;;;;;;;;88.00;72.75;;;;;5.04;66.76;102524.53;1976695;28;3674186;-75
2023/02/15 02:11:46;;;;;;;;;86.25;68.50;;;;;5.04;66.82;102527.13;1963792;28;4435630;-75
2023/02/15 02:13:02;;;;;;;;;88.50;71.00;;;;;5.04;66.52;102531.47;1983620;28;2914806;-75
2023/02/15 02:14:14;;;;;;;;;90.00;71.50;;;;;5.02;66.56;102530.56;1968019;28;2914889;-75
2023/02/15 02:15:52;;;;;;;;;82.50;70.50;;;;;5.03;66.32;102528.00;1960664;28;2906880;-75
2023/02/15 02:17:29;;;;;;;;;84.00;69.25;;;;;5.02;66.66;102530.56;1965829;28;3663897;-76
2023/02/15 02:18:48;;;;;;;;;88.50;71.50;;;;;4.99;66.57;102531.38;1990097;28;2912079;-75
2023/02/15 02:20:07;;;;;;;;;86.00;69.25;;;;;4.99;66.73;102527.91;1968100;28;3663867;-75
2023/02/15 02:21:51;;;;;;;;;86.25;67.00;;;;;4.98;66.69;102533.97;1991807;28;4443982;-75
2023/02/15 02:23:13;;;;;;;;;88.00;72.00;;;;;4.95;66.74;102527.84;1987287;28;2573173;-75
2023/02/15 02:25:02;;;;;;;;;89.67;73.67;;;;;4.95;66.48;102535.66;1962399;28;3651274;-75
2023/02/15 02:26:18;;;;;;;;;88.00;71.50;;;;;4.94;66.18;102533.88;1967176;28;2916933;-75
2023/02/15 02:27:43;;;;;;;;;87.00;71.25;;;;;4.92;66.53;102527.78;1968054;28;3660716;-75
2023/02/15 02:28:56;;;;;;;;;88.00;75.00;;;;;4.92;66.75;102533.00;1982964;28;2568001;-75
2023/02/15 02:30:43;;;;;;;;;85.00;69.50;;;;;4.91;66.74;102531.25;1966590;28;3654977;-75
2023/02/15 02:32:32;;;;;;;;;88.00;72.50;;;;;4.88;66.39;102528.56;1990394;28;2563779;-75
2023/02/15 02:33:59;;;;;;;;;80.50;62.00;;;;;4.89;66.54;102526.84;1970307;28;3644006;-75
2023/02/15 02:35:33;;;;;;;;;90.00;73.50;;;;;4.87;66.63;102531.13;1983534;28;2566931;-75
2023/02/15 02:36:49;;;;;;;;;88.50;73.00;;;;;4.87;66.66;102524.19;1960926;28;2913843;-75
2023/02/15 02:38:32;;;;;;;;;87.50;70.00;;;;;4.86;66.60;102527.66;1968288;28;3658667;-75
2023/02/15 02:40:17;;;;;;;;;92.50;73.75;;;;;4.83;66.73;102525.00;1983379;28;4412710;-75
2023/02/15 02:41:36;;;;;;;;;87.50;70.00;;;;;4.82;66.99;102521.50;1987316;28;2566919;-75
2023/02/15 02:43:16;;;;;;;;;88.50;71.75;;;;;4.80;67.01;102515.38;1960650;28;4429353;-75
2023/02/15 02:44:39;;;;;;;;;85.50;71.50;;;;;4.80;66.20;102518.00;1980847;28;3653346;-75
2023/02/15 02:46:20;;;;;;;;;83.00;64.67;;;;;4.80;66.58;102518.00;1979234;28;3633564;-75
2023/02/15 02:47:34;;;;;;;;;86.50;69.00;;;;;4.79;66.57;102518.81;1950123;28;2569026;-75
2023/02/15 02:48:48;;;;;;;;;86.25;69.50;;;;;4.79;66.52;102512.75;1961838;28;4420023;-75
2023/02/15 02:50:03;;;;;;;;;86.50;68.50;;;;;4.77;66.60;102506.63;1993671;28;2920014;-75
2023/02/15 02:51:21;;;;;;;;;81.00;68.00;;;;;4.78;66.92;102509.28;1966821;28;3656521;-75
2023/02/15 02:52:55;;;;;;;;;90.50;71.50;;;;;4.77;66.41;102509.22;1966896;28;2565934;-75
2023/02/15 02:54:07;;;;;;;;;86.00;67.50;;;;;4.75;66.52;102509.19;1972586;28;3665849;-75
2023/02/15 02:55:29;;;;;;;;;82.75;68.75;;;;;4.76;66.66;102502.28;1982864;28;3655462;-75
2023/02/15 02:56:45;;;;;;;;;83.00;65.00;;;;;4.74;66.58;102504.84;1980529;28;3657556;-75
2023/02/15 02:58:28;;;;;;;;;88.50;67.50;;;;;4.73;66.36;102503.97;1960076;28;2917954;-76
2023/02/15 02:59:45;;;;;;;;;90.00;71.75;;;;;4.71;66.63;102510.88;1965529;28;4437701;-75
2023/02/15 03:01:06;;;;;;;;;86.50;73.00;;;;;4.69;66.56;102499.53;1991106;28;2894514;-75
2023/02/15 03:02:25;;;;;;;;;85.00;65.50;;;;;4.68;66.75;102505.59;1968607;28;3666969;-75
2023/02/15 03:03:43;;;;;;;;;87.50;73.75;;;;;4.68;66.43;102503.00;1992157;28;3659596;-75
2023/02/15 03:05:03;;;;;;;;;86.75;68.75;;;;;4.67;66.80;102498.63;1989871;28;3671145;-75
2023/02/15 03:06:19;;;;;;;;;88.00;71.50;;;;;4.67;66.57;102503.81;1983943;28;2912763;-75
2023/02/15 03:07:31;;;;;;;;;85.50;70.00;;;;;4.67;66.58;102514.25;1959485;28;2573205;-75
2023/02/15 03:08:48;;;;;;;;;87.00;69.00;;;;;4.67;66.89;102514.25;1951518;28;2572219;-75
2023/02/15 03:10:01;;;;;;;;;90.00;74.00;;;;;4.66;66.28;102512.50;1950388;28;2925255;-75
2023/02/15 03:11:12;;;;;;;;;88.50;73.50;;;;;4.66;66.61;102509.91;1958912;28;2910679;-75
2023/02/15 03:12:26;;;;;;;;;90.00;72.50;;;;;4.65;66.57;102513.34;1956017;28;2570012;-75
2023/02/15 03:13:37;;;;;;;;;91.00;75.00;;;;;4.65;66.30;102512.47;1961723;28;2913768;-75
2023/02/15 03:14:56;;;;;;;;;91.50;70.50;;;;;4.64;66.48;102514.22;1968355;28;2571086;-75
2023/02/15 03:16:26;;;;;;;;;85.00;69.25;;;;;4.63;66.38;102515.03;1969015;28;3658917;-75
2023/02/15 03:17:44;;;;;;;;;89.00;72.50;;;;;4.61;66.51;102508.94;1990934;28;2910668;-75
2023/02/15 03:19:07;;;;;;;;;79.67;60.00;;;;;4.60;66.76;102517.56;1961252;28;3634608;-75
2023/02/15 03:20:25;;;;;;;;;88.00;70.00;;;;;4.59;66.65;102515.84;1960452;28;2914858;-75
2023/02/15 03:21:57;;;;;;;;;84.00;65.50;;;;;4.58;66.33;102514.94;1966865;28;2887748;-75
2023/02/15 03:23:16;;;;;;;;;89.75;72.25;;;;;4.58;66.92;102511.47;1968787;28;4432478;-75
2023/02/15 03:24:34;;;;;;;;;85.00;65.67;;;;;4.57;66.77;102514.91;1992840;28;3657524;-75
2023/02/15 03:25:52;;;;;;;;;91.50;77.00;;;;;4.58;66.78;102508.84;1957670;28;2566924;-75
2023/02/15 03:27:07;;;;;;;;;89.00;73.50;;;;;4.56;66.56;102506.22;1966380;28;2917983;-75
2023/02/15 03:28:25;;;;;;;;;86.75;73.00;;;;;4.56;66.97;102505.34;1959851;28;3648141;-75
2023/02/15 03:29:39;;;;;;;;;87.00;66.00;;;;;4.55;67.47;102500.97;1985390;28;3670048;-75
2023/02/15 03:30:55;;;;;;;;;89.00;77.50;;;;;4.55;66.45;102498.38;1982252;28;2898168;-75
2023/02/15 03:32:11;;;;;;;;;86.50;65.50;;;;;4.54;66.56;102502.72;1960279;28;2566916;-75
2023/02/15 03:33:26;;;;;;;;;87.50;70.50;;;;;4.55;66.31;102506.19;1959401;28;2918019;-75
2023/02/15 03:34:36;;;;;;;;;81.50;62.50;;;;;4.53;66.81;102498.34;1967833;28;2895058;-75
2023/02/15 03:36:19;;;;;;;;;89.20;73.20;;;;;4.53;66.58;102498.34;1985929;28;3659556;-75
2023/02/15 03:37:40;;;;;;;;;90.50;74.50;;;;;4.52;66.71;102507.00;1973595;28;2918993;-75
2023/02/15 03:39:02;;;;;;;;;84.25;59.50;;;;;4.50;66.64;102501.75;1960587;28;3658598;-75
2023/02/15 03:42:32;;;;;;;;;87.00;69.00;;;;;4.48;66.62;102505.19;1957172;28;2571094;-75
2023/02/15 03:43:56;;;;;;;;;89.50;73.25;;;;;4.48;66.81;102499.97;1951275;28;4425254;-75
2023/02/15 03:45:13;;;;;;;;;91.00;73.50;;;;;4.46;66.77;102505.16;1986841;28;2921080;-75
2023/02/15 03:46:39;;;;;;;;;89.00;71.00;;;;;4.45;66.65;102508.59;1962435;28;2901313;-75
2023/02/15 03:47:54;;;;;;;;;90.00;76.00;;;;;4.44;66.46;102504.25;1962814;28;2911086;-75
2023/02/15 03:49:14;;;;;;;;;91.00;75.00;;;;;4.44;66.67;102514.66;1951979;28;2908624;-75
2023/02/15 03:52:04;;;;;;;;;90.50;73.50;;;;;4.41;66.48;102519.78;1983365;28;2917959;-75
2023/02/15 03:53:20;;;;;;;;;86.67;67.33;;;;;4.41;66.50;102506.78;1960936;28;3660013;-75
2023/02/15 03:54:45;;;;;;;;;91.00;74.00;;;;;4.41;66.29;102511.09;1964319;28;2573200;-75
2023/02/15 03:55:56;;;;;;;;;63.00;43.00;;;;;4.41;66.27;102517.19;1968147;28;2846114;-75
2023/02/15 04:02:11;;;;;;;;;88.50;72.25;;;;;4.37;66.66;102507.56;1989476;28;4426240;-75
2023/02/15 04:03:45;;;;;;;;;87.75;74.00;;;;;4.36;66.50;102503.19;1989944;28;3657054;-75
2023/02/15 04:04:56;;;;;;;;;89.00;70.00;;;;;4.36;66.74;102505.78;1992054;28;2573166;-75
2023/02/15 04:06:08;;;;;;;;;88.25;74.25;;;;;4.33;66.57;102498.78;1966212;28;3662730;-75
2023/02/15 04:07:20;;;;;;;;;96.33;78.00;;;;;4.33;66.34;102514.41;1976490;28;2899226;-75
2023/02/15 04:11:31;;;;;;;;;86.75;72.75;;;;;4.29;66.65;102512.59;1960379;28;3663850;-75
2023/02/15 04:12:44;;;;;;;;;89.25;72.75;;;;;4.27;66.90;102512.53;1975200;28;4433535;-75
2023/02/15 04:13:58;;;;;;;;;87.88;72.38;;;;;4.28;66.16;102516.91;1993820;28;3654441;-75
2023/02/15 04:16:41;;;;;;;;;88.00;72.50;;;;;4.26;66.72;102518.63;1967249;28;2912766;-75
2023/02/15 04:17:53;;;;;;;;;91.00;78.80;;;;;4.25;66.56;102516.84;1985147;28;3649520;-75
2023/02/15 04:25:13;;;;;;;;;92.67;80.67;;;;;4.21;66.87;102508.94;1968049;28;3649547;-75
2023/02/15 04:26:25;;;;;;;;;90.50;75.00;;;;;4.19;66.37;102506.31;1967938;28;4429369;-75
2023/02/15 04:27:41;;;;;;;;;92.13;77.88;;;;;4.20;66.96;102504.59;2008212;28;3671041;-75
2023/02/15 04:28:52;;;;;;;;;91.50;75.00;;;;;4.19;67.11;102506.31;1968168;28;2922122;-75
2023/02/15 04:30:07;;;;;;;;;87.00;68.75;;;;;4.19;66.94;102503.72;1974729;28;3671081;-75
2023/02/15 04:31:17;;;;;;;;;93.00;80.00;;;;;4.19;66.58;102506.31;1961204;28;2902702;-75
2023/02/15 04:32:31;;;;;;;;;84.38;65.50;;;;;4.18;66.79;102509.75;1983729;28;3658554;-75
2023/02/15 04:33:43;;;;;;;;;88.00;74.33;;;;;4.18;66.75;102509.75;1978414;28;3649272;-75
2023/02/15 04:34:57;;;;;;;;;95.75;77.25;;;;;4.18;67.07;102503.66;1983967;28;3678382;-75
2023/02/15 04:36:11;;;;;;;;;92.00;79.38;;;;;4.17;66.57;102502.81;1983702;28;3669993;-75
2023/02/15 04:37:25;;;;;;;;;87.88;73.50;;;;;4.17;66.36;102508.00;1983572;28;3652400;-75
2023/02/15 04:38:37;;;;;;;;;88.00;83.00;;;;;4.16;66.50;102504.50;1989069;28;3639825;-75
2023/02/15 04:39:49;;;;;;;;;86.80;71.60;;;;;4.18;66.96;102509.75;1983913;28;3652270;-75
2023/02/15 04:41:00;;;;;;;;;89.00;70.00;;;;;4.17;66.86;102508.00;1958751;28;2562798;-75
2023/02/15 04:42:12;;;;;;;;;91.40;75.80;;;;;4.18;66.91;102508.84;1967156;28;3663787;-75
2023/02/15 04:43:24;;;;;;;;;88.20;73.80;;;;;4.16;67.15;102512.31;1979878;28;3657520;-75
2023/02/15 04:44:38;;;;;;;;;86.75;70.88;;;;;4.16;66.46;102511.44;1985902;28;3667964;-75
2023/02/15 04:45:50;;;;;;;;;94.00;81.40;;;;;4.15;66.87;102513.16;1989932;28;3660600;-75
2023/02/15 04:47:03;;;;;;;;;88.75;75.50;;;;;4.15;66.45;102517.47;1975569;28;4424161;-75
2023/02/15 04:48:17;;;;;;;;;85.25;69.25;;;;;4.14;66.74;102508.81;1997814;28;3659719;-75
2023/02/15 04:49:29;;;;;;;;;93.00;79.75;;;;;4.12;66.38;102507.00;1983238;28;3667002;-75
2023/02/15 04:50:43;;;;;;;;;95.25;82.00;;;;;4.12;66.60;102502.69;1974798;28;3671066;-75
2023/02/15 04:51:55;;;;;;;;;95.00;77.00;;;;;4.13;66.42;102509.63;1974812;28;3664905;-75
2023/02/15 04:53:06;;;;;;;;;99.00;85.50;;;;;4.12;66.64;102510.50;1976493;28;2908986;-75
2023/02/15 04:54:18;;;;;;;;;102.60;84.40;;;;;4.12;66.86;102507.00;1984000;28;3681463;-75
2023/02/15 04:55:30;;;;;;;;;95.20;82.80;;;;;4.11;67.06;102503.53;1987958;28;3665803;-75
2023/02/15 04:56:44;;;;;;;;;98.00;82.75;;;;;4.11;67.00;102503.53;1984984;28;3660669;-75
2023/02/15 04:57:55;;;;;;;;;91.00;77.50;;;;;4.11;66.73;102502.63;1996156;28;2571086;-75
2023/02/15 04:59:10;;;;;;;;;95.00;80.60;;;;;4.11;66.64;102502.63;1976876;28;3675193;-75
2023/02/15 05:00:22;;;;;;;;;93.00;78.00;;;;;4.10;66.98;102501.75;1967646;28;3662802;-75
2023/02/15 05:01:33;;;;;;;;;92.00;81.50;;;;;4.11;66.50;102502.63;1992371;28;2893280;-75
2023/02/15 05:02:45;;;;;;;;;95.00;80.60;;;;;4.09;66.75;102505.22;1979094;28;3663811;-75
2023/02/15 05:03:57;;;;;;;;;92.40;78.40;;;;;4.09;66.84;102504.34;1979411;28;3673124;-75
2023/02/15 05:05:12;;;;;;;;;98.00;78.50;;;;;4.08;66.78;102507.75;1988101;28;3676225;-75
2023/02/15 05:06:23;;;;;;;;;96.00;84.00;;;;;4.08;66.81;102502.56;1990680;28;2905451;-75
2023/02/15 05:07:35;;;;;;;;;88.40;68.40;;;;;4.08;66.31;102507.75;1987977;28;3659593;-75
2023/02/15 05:08:47;;;;;;;;;91.20;76.80;;;;;4.07;67.02;102511.22;1979760;28;3666861;-75
2023/02/15 05:09:58;;;;;;;;;102.00;89.00;;;;;4.08;66.08;102510.38;1975030;28;2575256;-75
2023/02/15 05:11:10;;;;;;;;;93.67;84.67;;;;;4.07;67.05;102511.22;1976610;28;3654349;-75
2023/02/15 05:12:24;;;;;;;;;98.63;80.75;;;;;4.08;67.11;102507.75;1978904;28;3671074;-75
2023/02/15 05:13:36;;;;;;;;;94.40;79.20;;;;;4.07;66.30;102501.72;1989483;28;3669998;-75
2023/02/15 05:14:50;;;;;;;;;90.38;81.50;;;;;4.08;66.69;102507.75;1985797;28;3647103;-75
2023/02/15 05:16:02;;;;;;;;;92.80;81.20;;;;;4.07;66.75;102506.91;2002704;28;3663733;-75
2023/02/15 05:17:13;;;;;;;;;97.00;80.00;;;;;4.09;66.37;102504.34;1972831;28;2575277;-75
2023/02/15 05:18:25;;;;;;;;;90.40;73.20;;;;;4.07;66.70;102500.81;1978672;28;3671038;-75
2023/02/15 05:19:39;;;;;;;;;100.75;82.88;;;;;4.07;66.46;102506.03;1979383;28;3687701;-75
2023/02/15 05:20:53;;;;;;;;;94.50;79.38;;;;;4.05;66.92;102503.38;1976153;28;3670047;-75
2023/02/15 05:22:05;;;;;;;;;105.20;90.80;;;;;4.04;66.67;102499.91;1978074;28;3674529;-75
2023/02/15 05:23:20;;;;;;;;;91.67;73.56;;;;;4.03;66.66;102495.53;1978088;28;3678379;-75
2023/02/15 05:28:59;;;;;;;;;94.00;87.00;;;;;4.01;67.03;102496.34;1969194;28;2895036;-75
2023/02/15 05:30:13;;;;;;;;;100.88;85.88;;;;;4.00;66.61;102492.84;1985105;28;3676306;-75
2023/02/15 05:31:25;;;;;;;;;99.20;88.80;;;;;3.99;66.80;102491.13;1977776;28;3670000;-75
2023/02/15 05:32:38;;;;;;;;;106.80;92.20;;;;;3.99;66.76;102493.72;1986343;28;3675199;-75
2023/02/15 05:33:49;;;;;;;;;98.00;84.50;;;;;4.00;66.67;102495.47;1964006;28;2901314;-75
2023/02/15 05:35:02;;;;;;;;;102.17;89.50;;;;;3.98;66.80;102494.56;1984531;28;3689768;-75
2023/02/15 05:36:14;;;;;;;;;100.67;84.33;;;;;3.99;66.85;102498.94;1992933;28;3677260;-75
2023/02/15 05:37:26;;;;;;;;;103.50;86.50;;;;;3.97;66.79;102492.81;2006450;28;3682500;-75
2023/02/15 05:38:37;;;;;;;;;103.50;89.00;;;;;3.99;67.19;102498.94;1988605;28;2571110;-75
2023/02/15 05:39:50;;;;;;;;;93.00;79.75;;;;;3.97;66.73;102498.00;1967761;28;3648142;-75
2023/02/15 05:41:01;;;;;;;;;104.00;95.00;;;;;3.98;67.17;102496.25;1992387;28;3690837;-75
2023/02/15 05:42:13;;;;;;;;;105.00;92.40;;;;;3.99;66.86;102496.31;2010942;28;3671017;-75
2023/02/15 05:43:27;;;;;;;;;101.50;85.88;;;;;3.99;66.88;102493.72;1985989;28;3671058;-75
2023/02/15 05:44:38;;;;;;;;;99.50;83.00;;;;;4.00;67.81;102489.41;1981727;28;2583658;-75
2023/02/15 05:45:54;;;;;;;;;99.50;83.88;;;;;4.00;67.06;102490.25;1974992;28;3678392;-75
2023/02/15 05:47:06;;;;;;;;;94.00;85.00;;;;;4.01;67.12;102483.34;1987835;28;2569571;-75
2023/02/15 05:48:20;;;;;;;;;97.00;89.00;;;;;4.01;66.83;102483.34;1960165;28;3652376;-75
2023/02/15 05:49:32;;;;;;;;;111.00;90.00;;;;;4.03;67.43;102485.13;1975690;28;2939841;-75
2023/02/15 05:50:43;;;;;;;;;99.00;90.50;;;;;4.03;67.38;102485.13;1976734;28;2901308;-75
2023/02/15 05:51:55;;;;;;;;;90.00;84.33;;;;;4.03;67.03;102484.25;1961547;28;3633567;-75
2023/02/15 05:53:10;;;;;;;;;100.89;87.22;;;;;4.02;67.16;102488.59;1977341;28;3675197;-75
2023/02/15 05:54:22;;;;;;;;;95.00;82.25;;;;;4.03;66.97;102490.34;1984679;28;3665850;-75
2023/02/15 05:55:33;;;;;;;;;108.50;88.50;;;;;4.04;66.78;102486.00;1983799;28;2928390;-75
2023/02/15 05:56:45;;;;;;;;;94.00;79.00;;;;;4.04;67.01;102488.63;1979190;28;3672072;-75
2023/02/15 05:57:57;;;;;;;;;95.80;81.80;;;;;4.03;66.92;102482.53;1984037;28;3664790;-75
2023/02/15 05:59:09;;;;;;;;;98.80;84.20;;;;;4.02;67.56;102477.31;1988471;28;3669034;-75
2023/02/15 06:00:21;;;;;;;;;91.20;81.80;;;;;4.03;67.44;102479.94;1986704;28;3651224;-75
2023/02/15 06:01:34;;;;;;;;;100.25;88.75;;;;;4.02;67.79;102479.91;1990247;28;4430792;-75
2023/02/15 06:02:48;;;;;;;;;97.00;83.25;;;;;4.03;67.50;102479.03;2005305;28;3670429;-75
2023/02/15 06:04:00;;;;;;;;;90.67;76.67;;;;;4.02;67.15;102483.38;1990082;28;3653349;-75